sensor_id;sensor_type;location;lat;lon;timestamp;P1;durP1;ratioP1;P2;durP2;ratioP2
22644;SDS011;11489;50.834;6.752;2023-05-07T00:01:25;5.50;;;4.65;;
22644;SDS011;11489;50.834;6.752;2023-05-07T00:03:51;6.53;;;4.55;;
22644;SDS011;11489;50.834;6.752;2023-05-07T00:06:16;5.63;;;4.28;;
22644;SDS011;11489;50.834;6.752;2023-05-07T00:08:42;5.30;;;4.22;;
22644;SDS011;11489;50.834;6.752;2023-05-07T00:11:08;5.90;;;4.82;;
22644;SDS011;11489;50.834;6.752;2023-05-07T00:13:33;3.97;;;3.58;;
22644;SDS011;11489;50.834;6.752;2023-05-07T00:16:03;4.90;;;4.25;;
22644;SDS011;11489;50.834;6.752;2023-05-07T00:18:29;5.45;;;4.35;;
22644;SDS011;11489;50.834;6.752;2023-05-07T00:20:54;6.05;;;4.50;;
22644;SDS011;11489;50.834;6.752;2023-05-07T00:23:21;4.45;;;3.88;;
22644;SDS011;11489;50.834;6.752;2023-05-07T00:25:47;6.50;;;4.50;;
22644;SDS011;11489;50.834;6.752;2023-05-07T00:28:13;6.38;;;4.55;;
22644;SDS011;11489;50.834;6.752;2023-05-07T00:30:38;6.28;;;4.88;;
22644;SDS011;11489;50.834;6.752;2023-05-07T00:33:04;5.60;;;5.00;;
22644;SDS011;11489;50.834;6.752;2023-05-07T00:35:30;6.22;;;4.95;;
22644;SDS011;11489;50.834;6.752;2023-05-07T00:37:56;7.13;;;5.43;;
22644;SDS011;11489;50.834;6.752;2023-05-07T00:40:22;6.13;;;5.25;;
22644;SDS011;11489;50.834;6.752;2023-05-07T00:42:48;6.90;;;5.32;;
22644;SDS011;11489;50.834;6.752;2023-05-07T00:45:15;7.53;;;5.53;;
22644;SDS011;11489;50.834;6.752;2023-05-07T00:47:41;6.22;;;5.13;;
22644;SDS011;11489;50.834;6.752;2023-05-07T00:50:08;8.70;;;5.72;;
22644;SDS011;11489;50.834;6.752;2023-05-07T00:52:37;7.47;;;5.55;;
22644;SDS011;11489;50.834;6.752;2023-05-07T00:55:04;7.05;;;5.95;;
22644;SDS011;11489;50.834;6.752;2023-05-07T00:57:37;8.43;;;6.28;;
22644;SDS011;11489;50.834;6.752;2023-05-07T01:00:05;8.40;;;5.68;;
22644;SDS011;11489;50.834;6.752;2023-05-07T01:02:32;7.35;;;5.93;;
22644;SDS011;11489;50.834;6.752;2023-05-07T01:04:58;6.45;;;5.60;;
22644;SDS011;11489;50.834;6.752;2023-05-07T01:07:25;7.63;;;5.90;;
22644;SDS011;11489;50.834;6.752;2023-05-07T01:09:52;8.23;;;5.88;;
22644;SDS011;11489;50.834;6.752;2023-05-07T01:12:18;7.75;;;6.07;;
22644;SDS011;11489;50.834;6.752;2023-05-07T01:14:44;9.27;;;6.20;;
22644;SDS011;11489;50.834;6.752;2023-05-07T01:17:10;9.65;;;6.90;;
22644;SDS011;11489;50.834;6.752;2023-05-07T01:19:36;9.98;;;6.90;;
22644;SDS011;11489;50.834;6.752;2023-05-07T01:22:03;12.90;;;7.72;;
22644;SDS011;11489;50.834;6.752;2023-05-07T01:24:36;11.55;;;8.43;;
22644;SDS011;11489;50.834;6.752;2023-05-07T01:27:02;18.60;;;11.45;;
22644;SDS011;11489;50.834;6.752;2023-05-07T01:29:28;25.20;;;14.30;;
22644;SDS011;11489;50.834;6.752;2023-05-07T01:31:55;24.00;;;15.57;;
22644;SDS011;11489;50.834;6.752;2023-05-07T01:34:23;30.40;;;18.25;;
22644;SDS011;11489;50.834;6.752;2023-05-07T01:36:52;27.90;;;18.25;;
22644;SDS011;11489;50.834;6.752;2023-05-07T01:39:29;29.95;;;18.85;;
22644;SDS011;11489;50.834;6.752;2023-05-07T01:41:57;29.63;;;18.75;;
22644;SDS011;11489;50.834;6.752;2023-05-07T01:44:24;32.15;;;19.75;;
22644;SDS011;11489;50.834;6.752;2023-05-07T01:46:51;30.50;;;20.00;;
22644;SDS011;11489;50.834;6.752;2023-05-07T01:49:17;31.55;;;20.52;;
22644;SDS011;11489;50.834;6.752;2023-05-07T01:51:43;32.20;;;20.52;;
22644;SDS011;11489;50.834;6.752;2023-05-07T01:54:09;31.42;;;19.77;;
22644;SDS011;11489;50.834;6.752;2023-05-07T01:56:35;30.75;;;19.73;;
22644;SDS011;11489;50.834;6.752;2023-05-07T01:59:00;30.15;;;19.25;;
22644;SDS011;11489;50.834;6.752;2023-05-07T02:01:27;29.45;;;18.38;;
22644;SDS011;11489;50.834;6.752;2023-05-07T02:03:53;27.10;;;17.73;;
22644;SDS011;11489;50.834;6.752;2023-05-07T02:06:19;28.55;;;16.90;;
22644;SDS011;11489;50.834;6.752;2023-05-07T02:08:45;24.67;;;15.88;;
22644;SDS011;11489;50.834;6.752;2023-05-07T02:11:11;24.52;;;16.02;;
22644;SDS011;11489;50.834;6.752;2023-05-07T02:13:37;26.00;;;15.73;;
22644;SDS011;11489;50.834;6.752;2023-05-07T02:16:02;24.13;;;15.45;;
22644;SDS011;11489;50.834;6.752;2023-05-07T02:18:28;25.10;;;15.93;;
22644;SDS011;11489;50.834;6.752;2023-05-07T02:20:54;26.83;;;16.75;;
22644;SDS011;11489;50.834;6.752;2023-05-07T02:23:20;24.92;;;16.17;;
22644;SDS011;11489;50.834;6.752;2023-05-07T02:25:45;29.48;;;17.30;;
22644;SDS011;11489;50.834;6.752;2023-05-07T02:28:11;25.33;;;17.05;;
22644;SDS011;11489;50.834;6.752;2023-05-07T02:30:38;23.30;;;15.77;;
22644;SDS011;11489;50.834;6.752;2023-05-07T02:33:05;23.83;;;14.68;;
22644;SDS011;11489;50.834;6.752;2023-05-07T02:35:31;21.90;;;14.13;;
22644;SDS011;11489;50.834;6.752;2023-05-07T02:37:57;19.40;;;13.00;;
22644;SDS011;11489;50.834;6.752;2023-05-07T02:40:22;21.35;;;13.40;;
22644;SDS011;11489;50.834;6.752;2023-05-07T02:42:48;23.40;;;13.40;;
22644;SDS011;11489;50.834;6.752;2023-05-07T02:45:13;22.75;;;13.90;;
22644;SDS011;11489;50.834;6.752;2023-05-07T02:47:39;20.92;;;14.13;;
22644;SDS011;11489;50.834;6.752;2023-05-07T02:50:05;24.27;;;14.88;;
22644;SDS011;11489;50.834;6.752;2023-05-07T02:52:31;23.00;;;15.15;;
22644;SDS011;11489;50.834;6.752;2023-05-07T02:54:57;24.92;;;15.63;;
22644;SDS011;11489;50.834;6.752;2023-05-07T02:57:23;23.40;;;14.63;;
22644;SDS011;11489;50.834;6.752;2023-05-07T02:59:48;26.15;;;15.57;;
22644;SDS011;11489;50.834;6.752;2023-05-07T03:02:14;23.52;;;14.52;;
22644;SDS011;11489;50.834;6.752;2023-05-07T03:04:40;24.55;;;15.32;;
22644;SDS011;11489;50.834;6.752;2023-05-07T03:07:06;20.05;;;12.98;;
22644;SDS011;11489;50.834;6.752;2023-05-07T03:09:31;20.90;;;13.98;;
22644;SDS011;11489;50.834;6.752;2023-05-07T03:11:57;20.58;;;14.05;;
22644;SDS011;11489;50.834;6.752;2023-05-07T03:14:23;22.60;;;14.05;;
22644;SDS011;11489;50.834;6.752;2023-05-07T03:16:48;20.83;;;13.80;;
22644;SDS011;11489;50.834;6.752;2023-05-07T03:19:15;24.35;;;14.02;;
22644;SDS011;11489;50.834;6.752;2023-05-07T03:21:40;20.55;;;13.57;;
22644;SDS011;11489;50.834;6.752;2023-05-07T03:24:06;21.88;;;14.27;;
22644;SDS011;11489;50.834;6.752;2023-05-07T03:26:32;23.70;;;12.95;;
22644;SDS011;11489;50.834;6.752;2023-05-07T03:28:57;18.77;;;13.20;;
22644;SDS011;11489;50.834;6.752;2023-05-07T03:31:23;24.23;;;13.38;;
22644;SDS011;11489;50.834;6.752;2023-05-07T03:33:50;20.42;;;12.98;;
22644;SDS011;11489;50.834;6.752;2023-05-07T03:36:17;19.65;;;12.30;;
22644;SDS011;11489;50.834;6.752;2023-05-07T03:38:43;18.30;;;11.55;;
22644;SDS011;11489;50.834;6.752;2023-05-07T03:41:08;19.55;;;10.38;;
22644;SDS011;11489;50.834;6.752;2023-05-07T03:43:34;17.77;;;10.60;;
22644;SDS011;11489;50.834;6.752;2023-05-07T03:45:59;15.25;;;9.95;;
22644;SDS011;11489;50.834;6.752;2023-05-07T03:48:25;13.70;;;9.10;;
22644;SDS011;11489;50.834;6.752;2023-05-07T03:50:51;18.27;;;10.40;;
22644;SDS011;11489;50.834;6.752;2023-05-07T03:53:16;15.15;;;9.65;;
22644;SDS011;11489;50.834;6.752;2023-05-07T03:55:42;14.50;;;9.10;;
22644;SDS011;11489;50.834;6.752;2023-05-07T03:58:08;17.92;;;9.68;;
22644;SDS011;11489;50.834;6.752;2023-05-07T04:00:33;16.88;;;10.23;;
22644;SDS011;11489;50.834;6.752;2023-05-07T04:03:03;16.48;;;9.60;;
22644;SDS011;11489;50.834;6.752;2023-05-07T04:05:29;15.98;;;9.48;;
22644;SDS011;11489;50.834;6.752;2023-05-07T04:07:55;14.80;;;9.40;;
22644;SDS011;11489;50.834;6.752;2023-05-07T04:10:23;15.25;;;8.82;;
22644;SDS011;11489;50.834;6.752;2023-05-07T04:12:48;13.60;;;8.55;;
22644;SDS011;11489;50.834;6.752;2023-05-07T04:15:14;15.10;;;8.65;;
22644;SDS011;11489;50.834;6.752;2023-05-07T04:17:40;13.05;;;8.25;;
22644;SDS011;11489;50.834;6.752;2023-05-07T04:20:08;12.27;;;8.07;;
22644;SDS011;11489;50.834;6.752;2023-05-07T04:22:35;13.30;;;8.63;;
22644;SDS011;11489;50.834;6.752;2023-05-07T04:25:01;11.40;;;8.13;;
22644;SDS011;11489;50.834;6.752;2023-05-07T04:27:28;12.68;;;8.00;;
22644;SDS011;11489;50.834;6.752;2023-05-07T04:29:53;13.15;;;7.95;;
22644;SDS011;11489;50.834;6.752;2023-05-07T04:32:21;12.00;;;7.30;;
22644;SDS011;11489;50.834;6.752;2023-05-07T04:34:47;11.00;;;7.85;;
22644;SDS011;11489;50.834;6.752;2023-05-07T04:37:13;10.85;;;7.53;;
22644;SDS011;11489;50.834;6.752;2023-05-07T04:39:38;12.93;;;7.80;;
22644;SDS011;11489;50.834;6.752;2023-05-07T04:42:04;12.15;;;7.60;;
22644;SDS011;11489;50.834;6.752;2023-05-07T04:44:32;12.07;;;7.47;;
22644;SDS011;11489;50.834;6.752;2023-05-07T04:46:58;12.25;;;8.05;;
22644;SDS011;11489;50.834;6.752;2023-05-07T04:49:23;12.73;;;7.68;;
22644;SDS011;11489;50.834;6.752;2023-05-07T04:51:49;11.25;;;7.50;;
22644;SDS011;11489;50.834;6.752;2023-05-07T04:54:15;10.95;;;7.05;;
22644;SDS011;11489;50.834;6.752;2023-05-07T04:56:40;11.32;;;7.80;;
22644;SDS011;11489;50.834;6.752;2023-05-07T04:59:06;11.00;;;7.75;;
22644;SDS011;11489;50.834;6.752;2023-05-07T05:01:32;11.25;;;7.03;;
22644;SDS011;11489;50.834;6.752;2023-05-07T05:03:58;10.07;;;6.40;;
22644;SDS011;11489;50.834;6.752;2023-05-07T05:06:25;9.60;;;6.72;;
22644;SDS011;11489;50.834;6.752;2023-05-07T05:08:51;9.95;;;7.38;;
22644;SDS011;11489;50.834;6.752;2023-05-07T05:11:16;10.57;;;6.70;;
22644;SDS011;11489;50.834;6.752;2023-05-07T05:13:42;10.85;;;7.32;;
22644;SDS011;11489;50.834;6.752;2023-05-07T05:16:08;11.48;;;7.07;;
22644;SDS011;11489;50.834;6.752;2023-05-07T05:18:34;9.68;;;6.72;;
22644;SDS011;11489;50.834;6.752;2023-05-07T05:21:00;9.88;;;6.88;;
22644;SDS011;11489;50.834;6.752;2023-05-07T05:23:26;13.05;;;6.88;;
22644;SDS011;11489;50.834;6.752;2023-05-07T05:25:56;7.47;;;6.25;;
22644;SDS011;11489;50.834;6.752;2023-05-07T05:28:25;9.93;;;7.10;;
22644;SDS011;11489;50.834;6.752;2023-05-07T05:30:51;10.75;;;7.45;;
22644;SDS011;11489;50.834;6.752;2023-05-07T05:33:16;9.45;;;6.85;;
22644;SDS011;11489;50.834;6.752;2023-05-07T05:35:42;10.98;;;7.60;;
22644;SDS011;11489;50.834;6.752;2023-05-07T05:38:08;9.25;;;6.88;;
22644;SDS011;11489;50.834;6.752;2023-05-07T05:40:33;9.02;;;6.43;;
22644;SDS011;11489;50.834;6.752;2023-05-07T05:42:59;9.85;;;6.78;;
22644;SDS011;11489;50.834;6.752;2023-05-07T05:45:25;9.48;;;7.07;;
22644;SDS011;11489;50.834;6.752;2023-05-07T05:47:51;10.23;;;7.20;;
22644;SDS011;11489;50.834;6.752;2023-05-07T05:50:16;10.07;;;7.07;;
22644;SDS011;11489;50.834;6.752;2023-05-07T05:52:42;9.15;;;6.50;;
22644;SDS011;11489;50.834;6.752;2023-05-07T05:55:08;9.05;;;6.43;;
22644;SDS011;11489;50.834;6.752;2023-05-07T05:57:34;11.82;;;6.85;;
22644;SDS011;11489;50.834;6.752;2023-05-07T06:00:00;9.13;;;7.25;;
22644;SDS011;11489;50.834;6.752;2023-05-07T06:02:27;9.98;;;6.97;;
22644;SDS011;11489;50.834;6.752;2023-05-07T06:04:53;9.35;;;6.35;;
22644;SDS011;11489;50.834;6.752;2023-05-07T06:07:18;10.77;;;6.50;;
22644;SDS011;11489;50.834;6.752;2023-05-07T06:09:44;10.90;;;6.78;;
22644;SDS011;11489;50.834;6.752;2023-05-07T06:12:10;8.02;;;6.25;;
22644;SDS011;11489;50.834;6.752;2023-05-07T06:14:36;10.88;;;6.20;;
22644;SDS011;11489;50.834;6.752;2023-05-07T06:17:02;9.27;;;6.85;;
22644;SDS011;11489;50.834;6.752;2023-05-07T06:19:27;8.10;;;6.43;;
22644;SDS011;11489;50.834;6.752;2023-05-07T06:21:53;8.50;;;6.05;;
22644;SDS011;11489;50.834;6.752;2023-05-07T06:24:21;8.43;;;6.63;;
22644;SDS011;11489;50.834;6.752;2023-05-07T06:26:47;7.05;;;5.75;;
22644;SDS011;11489;50.834;6.752;2023-05-07T06:29:13;7.53;;;6.03;;
22644;SDS011;11489;50.834;6.752;2023-05-07T06:31:39;8.15;;;5.53;;
22644;SDS011;11489;50.834;6.752;2023-05-07T06:34:04;11.00;;;5.65;;
22644;SDS011;11489;50.834;6.752;2023-05-07T06:36:30;6.85;;;5.65;;
22644;SDS011;11489;50.834;6.752;2023-05-07T06:38:56;8.23;;;5.47;;
22644;SDS011;11489;50.834;6.752;2023-05-07T06:41:22;6.82;;;5.15;;
22644;SDS011;11489;50.834;6.752;2023-05-07T06:43:47;6.15;;;5.13;;
22644;SDS011;11489;50.834;6.752;2023-05-07T06:46:13;7.85;;;5.50;;
22644;SDS011;11489;50.834;6.752;2023-05-07T06:48:39;8.05;;;4.88;;
22644;SDS011;11489;50.834;6.752;2023-05-07T06:51:04;5.95;;;4.88;;
22644;SDS011;11489;50.834;6.752;2023-05-07T06:53:30;5.05;;;4.55;;
22644;SDS011;11489;50.834;6.752;2023-05-07T06:55:56;5.47;;;4.20;;
22644;SDS011;11489;50.834;6.752;2023-05-07T06:58:22;5.20;;;3.85;;
22644;SDS011;11489;50.834;6.752;2023-05-07T07:00:47;6.00;;;3.85;;
22644;SDS011;11489;50.834;6.752;2023-05-07T07:03:13;6.38;;;4.15;;
22644;SDS011;11489;50.834;6.752;2023-05-07T07:05:42;6.00;;;4.10;;
22644;SDS011;11489;50.834;6.752;2023-05-07T07:08:09;7.75;;;3.97;;
22644;SDS011;11489;50.834;6.752;2023-05-07T07:10:34;5.22;;;3.80;;
22644;SDS011;11489;50.834;6.752;2023-05-07T07:13:00;4.75;;;3.95;;
22644;SDS011;11489;50.834;6.752;2023-05-07T07:15:26;4.20;;;3.58;;
22644;SDS011;11489;50.834;6.752;2023-05-07T07:17:52;4.35;;;3.38;;
22644;SDS011;11489;50.834;6.752;2023-05-07T07:20:17;4.18;;;3.38;;
22644;SDS011;11489;50.834;6.752;2023-05-07T07:22:43;4.22;;;3.40;;
22644;SDS011;11489;50.834;6.752;2023-05-07T07:25:09;4.25;;;3.60;;
22644;SDS011;11489;50.834;6.752;2023-05-07T07:27:34;4.80;;;3.22;;
22644;SDS011;11489;50.834;6.752;2023-05-07T07:30:01;3.70;;;3.33;;
22644;SDS011;11489;50.834;6.752;2023-05-07T07:32:26;4.30;;;2.97;;
22644;SDS011;11489;50.834;6.752;2023-05-07T07:34:52;4.05;;;3.30;;
22644;SDS011;11489;50.834;6.752;2023-05-07T07:37:17;7.53;;;2.92;;
22644;SDS011;11489;50.834;6.752;2023-05-07T07:39:43;3.67;;;2.90;;
22644;SDS011;11489;50.834;6.752;2023-05-07T07:42:09;4.22;;;2.58;;
22644;SDS011;11489;50.834;6.752;2023-05-07T07:44:34;3.35;;;2.83;;
22644;SDS011;11489;50.834;6.752;2023-05-07T07:47:00;4.05;;;2.90;;
22644;SDS011;11489;50.834;6.752;2023-05-07T07:49:26;3.55;;;2.60;;
22644;SDS011;11489;50.834;6.752;2023-05-07T07:51:52;4.22;;;2.85;;
22644;SDS011;11489;50.834;6.752;2023-05-07T07:54:17;3.30;;;2.78;;
22644;SDS011;11489;50.834;6.752;2023-05-07T07:56:43;2.83;;;2.38;;
22644;SDS011;11489;50.834;6.752;2023-05-07T07:59:09;2.80;;;2.40;;
22644;SDS011;11489;50.834;6.752;2023-05-07T08:01:34;4.07;;;2.80;;
22644;SDS011;11489;50.834;6.752;2023-05-07T08:04:00;5.25;;;2.72;;
22644;SDS011;11489;50.834;6.752;2023-05-07T08:06:28;3.47;;;2.50;;
22644;SDS011;11489;50.834;6.752;2023-05-07T08:08:54;5.35;;;2.70;;
22644;SDS011;11489;50.834;6.752;2023-05-07T08:11:20;3.75;;;2.70;;
22644;SDS011;11489;50.834;6.752;2023-05-07T08:13:46;4.47;;;3.15;;
22644;SDS011;11489;50.834;6.752;2023-05-07T08:16:12;3.72;;;2.47;;
22644;SDS011;11489;50.834;6.752;2023-05-07T08:18:38;3.75;;;2.85;;
22644;SDS011;11489;50.834;6.752;2023-05-07T08:21:04;3.58;;;2.50;;
22644;SDS011;11489;50.834;6.752;2023-05-07T08:23:30;3.25;;;2.25;;
22644;SDS011;11489;50.834;6.752;2023-05-07T08:25:56;4.72;;;2.47;;
22644;SDS011;11489;50.834;6.752;2023-05-07T08:28:21;4.35;;;2.35;;
22644;SDS011;11489;50.834;6.752;2023-05-07T08:30:49;2.65;;;2.42;;
22644;SDS011;11489;50.834;6.752;2023-05-07T08:33:15;2.85;;;2.50;;
22644;SDS011;11489;50.834;6.752;2023-05-07T08:35:41;2.28;;;2.08;;
22644;SDS011;11489;50.834;6.752;2023-05-07T08:38:07;2.40;;;2.20;;
22644;SDS011;11489;50.834;6.752;2023-05-07T08:40:34;7.70;;;2.20;;
22644;SDS011;11489;50.834;6.752;2023-05-07T08:43:04;2.90;;;2.15;;
22644;SDS011;11489;50.834;6.752;2023-05-07T08:45:31;5.15;;;2.78;;
22644;SDS011;11489;50.834;6.752;2023-05-07T08:48:00;3.00;;;2.30;;
22644;SDS011;11489;50.834;6.752;2023-05-07T08:50:28;3.28;;;2.47;;
22644;SDS011;11489;50.834;6.752;2023-05-07T08:52:54;3.33;;;2.65;;
22644;SDS011;11489;50.834;6.752;2023-05-07T08:55:21;2.60;;;2.00;;
22644;SDS011;11489;50.834;6.752;2023-05-07T08:57:47;3.38;;;2.20;;
22644;SDS011;11489;50.834;6.752;2023-05-07T09:00:13;2.60;;;2.22;;
22644;SDS011;11489;50.834;6.752;2023-05-07T09:02:40;2.83;;;2.35;;
22644;SDS011;11489;50.834;6.752;2023-05-07T09:05:06;3.63;;;2.30;;
22644;SDS011;11489;50.834;6.752;2023-05-07T09:07:32;2.30;;;1.98;;
22644;SDS011;11489;50.834;6.752;2023-05-07T09:09:58;4.45;;;1.98;;
22644;SDS011;11489;50.834;6.752;2023-05-07T09:12:26;3.22;;;2.10;;
22644;SDS011;11489;50.834;6.752;2023-05-07T09:14:51;2.72;;;2.17;;
22644;SDS011;11489;50.834;6.752;2023-05-07T09:17:17;2.10;;;1.90;;
22644;SDS011;11489;50.834;6.752;2023-05-07T09:19:46;3.88;;;2.15;;
22644;SDS011;11489;50.834;6.752;2023-05-07T09:22:12;4.60;;;2.05;;
22644;SDS011;11489;50.834;6.752;2023-05-07T09:24:38;3.20;;;2.15;;
22644;SDS011;11489;50.834;6.752;2023-05-07T09:27:04;4.60;;;2.33;;
22644;SDS011;11489;50.834;6.752;2023-05-07T09:29:31;2.53;;;2.05;;
22644;SDS011;11489;50.834;6.752;2023-05-07T09:32:03;4.00;;;2.13;;
22644;SDS011;11489;50.834;6.752;2023-05-07T09:34:30;5.07;;;2.40;;
22644;SDS011;11489;50.834;6.752;2023-05-07T09:37:03;3.42;;;1.80;;
22644;SDS011;11489;50.834;6.752;2023-05-07T09:39:42;4.43;;;2.30;;
22644;SDS011;11489;50.834;6.752;2023-05-07T09:42:10;2.33;;;2.13;;
22644;SDS011;11489;50.834;6.752;2023-05-07T09:44:37;3.05;;;2.22;;
22644;SDS011;11489;50.834;6.752;2023-05-07T09:47:06;4.45;;;1.77;;
22644;SDS011;11489;50.834;6.752;2023-05-07T09:49:33;2.40;;;1.85;;
22644;SDS011;11489;50.834;6.752;2023-05-07T09:52:02;3.50;;;1.90;;
22644;SDS011;11489;50.834;6.752;2023-05-07T09:54:31;1.88;;;1.77;;
22644;SDS011;11489;50.834;6.752;2023-05-07T09:56:58;2.08;;;1.80;;
22644;SDS011;11489;50.834;6.752;2023-05-07T09:59:27;3.47;;;1.60;;
22644;SDS011;11489;50.834;6.752;2023-05-07T10:01:56;1.63;;;1.52;;
22644;SDS011;11489;50.834;6.752;2023-05-07T10:04:24;1.98;;;1.73;;
22644;SDS011;11489;50.834;6.752;2023-05-07T10:06:50;2.22;;;1.90;;
22644;SDS011;11489;50.834;6.752;2023-05-07T10:09:16;2.38;;;2.00;;
22644;SDS011;11489;50.834;6.752;2023-05-07T10:11:43;4.32;;;1.60;;
22644;SDS011;11489;50.834;6.752;2023-05-07T10:14:09;2.83;;;1.85;;
22644;SDS011;11489;50.834;6.752;2023-05-07T10:16:36;1.98;;;1.30;;
22644;SDS011;11489;50.834;6.752;2023-05-07T10:19:02;2.00;;;1.70;;
22644;SDS011;11489;50.834;6.752;2023-05-07T10:21:29;1.77;;;1.67;;
22644;SDS011;11489;50.834;6.752;2023-05-07T10:26:32;2.20;;;1.50;;
22644;SDS011;11489;50.834;6.752;2023-05-07T10:29:03;1.58;;;1.48;;
22644;SDS011;11489;50.834;6.752;2023-05-07T10:34:45;2.03;;;1.23;;
22644;SDS011;11489;50.834;6.752;2023-05-07T10:37:13;2.17;;;1.70;;
22644;SDS011;11489;50.834;6.752;2023-05-07T10:39:40;4.53;;;1.48;;
22644;SDS011;11489;50.834;6.752;2023-05-07T10:42:16;5.13;;;1.67;;
22644;SDS011;11489;50.834;6.752;2023-05-07T10:44:42;1.77;;;1.40;;
22644;SDS011;11489;50.834;6.752;2023-05-07T10:47:08;1.90;;;1.63;;
22644;SDS011;11489;50.834;6.752;2023-05-07T10:52:14;2.80;;;1.45;;
22644;SDS011;11489;50.834;6.752;2023-05-07T10:54:41;1.67;;;1.35;;
22644;SDS011;11489;50.834;6.752;2023-05-07T10:59:55;3.17;;;1.25;;
22644;SDS011;11489;50.834;6.752;2023-05-07T11:02:21;2.80;;;1.50;;
22644;SDS011;11489;50.834;6.752;2023-05-07T11:07:57;3.08;;;1.35;;
22644;SDS011;11489;50.834;6.752;2023-05-07T11:13:15;1.90;;;1.30;;
22644;SDS011;11489;50.834;6.752;2023-05-07T11:15:42;1.45;;;1.35;;
22644;SDS011;11489;50.834;6.752;2023-05-07T11:18:10;3.08;;;1.38;;
22644;SDS011;11489;50.834;6.752;2023-05-07T11:20:56;3.20;;;1.40;;
22644;SDS011;11489;50.834;6.752;2023-05-07T11:26:05;1.42;;;1.30;;
22644;SDS011;11489;50.834;6.752;2023-05-07T11:28:36;1.92;;;1.20;;
22644;SDS011;11489;50.834;6.752;2023-05-07T11:31:03;3.97;;;1.60;;
22644;SDS011;11489;50.834;6.752;2023-05-07T11:33:32;1.77;;;1.50;;
22644;SDS011;11489;50.834;6.752;2023-05-07T11:35:59;1.60;;;1.42;;
22644;SDS011;11489;50.834;6.752;2023-05-07T11:38:26;1.75;;;1.30;;
22644;SDS011;11489;50.834;6.752;2023-05-07T11:40:57;1.88;;;1.40;;
22644;SDS011;11489;50.834;6.752;2023-05-07T11:43:29;1.40;;;1.30;;
22644;SDS011;11489;50.834;6.752;2023-05-07T11:46:04;4.80;;;1.40;;
22644;SDS011;11489;50.834;6.752;2023-05-07T11:48:34;1.48;;;1.23;;
22644;SDS011;11489;50.834;6.752;2023-05-07T11:51:00;1.70;;;1.48;;
22644;SDS011;11489;50.834;6.752;2023-05-07T11:53:28;3.20;;;1.55;;
22644;SDS011;11489;50.834;6.752;2023-05-07T11:56:10;2.10;;;1.38;;
22644;SDS011;11489;50.834;6.752;2023-05-07T11:58:38;1.52;;;1.42;;
22644;SDS011;11489;50.834;6.752;2023-05-07T12:01:06;1.35;;;1.23;;
22644;SDS011;11489;50.834;6.752;2023-05-07T12:03:34;1.90;;;1.20;;
22644;SDS011;11489;50.834;6.752;2023-05-07T12:06:02;1.95;;;1.40;;
22644;SDS011;11489;50.834;6.752;2023-05-07T12:08:30;1.65;;;1.40;;
22644;SDS011;11489;50.834;6.752;2023-05-07T12:10:56;1.58;;;1.38;;
22644;SDS011;11489;50.834;6.752;2023-05-07T12:13:22;2.10;;;1.40;;
22644;SDS011;11489;50.834;6.752;2023-05-07T12:15:52;1.88;;;1.45;;
22644;SDS011;11489;50.834;6.752;2023-05-07T12:18:19;2.05;;;1.27;;
22644;SDS011;11489;50.834;6.752;2023-05-07T12:20:45;1.75;;;1.60;;
22644;SDS011;11489;50.834;6.752;2023-05-07T12:23:12;2.38;;;1.40;;
22644;SDS011;11489;50.834;6.752;2023-05-07T12:25:38;1.48;;;1.30;;
22644;SDS011;11489;50.834;6.752;2023-05-07T12:28:15;2.38;;;1.52;;
22644;SDS011;11489;50.834;6.752;2023-05-07T12:30:42;2.60;;;1.70;;
22644;SDS011;11489;50.834;6.752;2023-05-07T12:33:09;2.92;;;1.40;;
22644;SDS011;11489;50.834;6.752;2023-05-07T12:35:36;2.13;;;1.50;;
22644;SDS011;11489;50.834;6.752;2023-05-07T12:38:07;1.48;;;1.38;;
22644;SDS011;11489;50.834;6.752;2023-05-07T12:40:39;3.50;;;1.80;;
22644;SDS011;11489;50.834;6.752;2023-05-07T12:45:54;1.35;;;1.25;;
22644;SDS011;11489;50.834;6.752;2023-05-07T12:48:22;2.33;;;1.73;;
22644;SDS011;11489;50.834;6.752;2023-05-07T12:50:51;2.28;;;1.70;;
22644;SDS011;11489;50.834;6.752;2023-05-07T12:53:21;3.45;;;1.95;;
22644;SDS011;11489;50.834;6.752;2023-05-07T12:55:49;2.92;;;2.30;;
22644;SDS011;11489;50.834;6.752;2023-05-07T12:58:26;2.65;;;2.20;;
22644;SDS011;11489;50.834;6.752;2023-05-07T13:00:58;3.13;;;2.28;;
22644;SDS011;11489;50.834;6.752;2023-05-07T13:03:26;4.50;;;2.90;;
22644;SDS011;11489;50.834;6.752;2023-05-07T13:05:52;4.78;;;3.15;;
22644;SDS011;11489;50.834;6.752;2023-05-07T13:08:23;5.05;;;3.30;;
22644;SDS011;11489;50.834;6.752;2023-05-07T13:11:00;4.88;;;3.20;;
22644;SDS011;11489;50.834;6.752;2023-05-07T13:13:29;5.20;;;3.50;;
22644;SDS011;11489;50.834;6.752;2023-05-07T13:15:59;4.88;;;3.80;;
22644;SDS011;11489;50.834;6.752;2023-05-07T13:18:25;4.40;;;3.53;;
22644;SDS011;11489;50.834;6.752;2023-05-07T13:20:52;4.97;;;3.33;;
22644;SDS011;11489;50.834;6.752;2023-05-07T13:23:18;5.18;;;3.65;;
22644;SDS011;11489;50.834;6.752;2023-05-07T13:25:44;6.80;;;3.70;;
22644;SDS011;11489;50.834;6.752;2023-05-07T13:28:10;4.65;;;3.78;;
22644;SDS011;11489;50.834;6.752;2023-05-07T13:30:36;5.47;;;3.83;;
22644;SDS011;11489;50.834;6.752;2023-05-07T13:33:22;4.80;;;3.78;;
22644;SDS011;11489;50.834;6.752;2023-05-07T13:35:52;5.13;;;3.78;;
22644;SDS011;11489;50.834;6.752;2023-05-07T13:38:23;4.88;;;4.03;;
22644;SDS011;11489;50.834;6.752;2023-05-07T13:40:49;7.22;;;4.35;;
22644;SDS011;11489;50.834;6.752;2023-05-07T13:43:17;10.70;;;4.57;;
22644;SDS011;11489;50.834;6.752;2023-05-07T13:45:43;4.65;;;4.07;;
22644;SDS011;11489;50.834;6.752;2023-05-07T13:48:09;4.90;;;4.13;;
22644;SDS011;11489;50.834;6.752;2023-05-07T13:50:35;7.03;;;4.70;;
22644;SDS011;11489;50.834;6.752;2023-05-07T13:53:04;8.30;;;4.50;;
22644;SDS011;11489;50.834;6.752;2023-05-07T13:55:33;5.35;;;4.53;;
22644;SDS011;11489;50.834;6.752;2023-05-07T13:58:01;6.30;;;4.70;;
22644;SDS011;11489;50.834;6.752;2023-05-07T14:00:28;5.63;;;4.75;;
22644;SDS011;11489;50.834;6.752;2023-05-07T14:02:54;6.05;;;4.85;;
22644;SDS011;11489;50.834;6.752;2023-05-07T14:05:21;8.23;;;5.13;;
22644;SDS011;11489;50.834;6.752;2023-05-07T14:07:48;8.15;;;6.43;;
22644;SDS011;11489;50.834;6.752;2023-05-07T14:10:17;9.00;;;6.70;;
22644;SDS011;11489;50.834;6.752;2023-05-07T14:12:44;8.18;;;5.90;;
22644;SDS011;11489;50.834;6.752;2023-05-07T14:15:10;8.75;;;5.63;;
22644;SDS011;11489;50.834;6.752;2023-05-07T14:17:36;6.43;;;4.28;;
22644;SDS011;11489;50.834;6.752;2023-05-07T14:20:02;5.72;;;3.97;;
22644;SDS011;11489;50.834;6.752;2023-05-07T14:22:28;6.05;;;3.85;;
22644;SDS011;11489;50.834;6.752;2023-05-07T14:24:54;6.05;;;3.60;;
22644;SDS011;11489;50.834;6.752;2023-05-07T14:27:20;5.43;;;3.67;;
22644;SDS011;11489;50.834;6.752;2023-05-07T14:29:46;6.30;;;3.40;;
22644;SDS011;11489;50.834;6.752;2023-05-07T14:32:19;5.45;;;3.33;;
22644;SDS011;11489;50.834;6.752;2023-05-07T14:34:51;4.63;;;3.70;;
22644;SDS011;11489;50.834;6.752;2023-05-07T14:37:17;5.65;;;3.55;;
22644;SDS011;11489;50.834;6.752;2023-05-07T14:39:44;5.88;;;3.58;;
22644;SDS011;11489;50.834;6.752;2023-05-07T14:42:10;6.50;;;3.55;;
22644;SDS011;11489;50.834;6.752;2023-05-07T14:44:37;4.78;;;3.20;;
22644;SDS011;11489;50.834;6.752;2023-05-07T14:47:05;5.57;;;3.40;;
22644;SDS011;11489;50.834;6.752;2023-05-07T14:49:31;4.10;;;2.90;;
22644;SDS011;11489;50.834;6.752;2023-05-07T14:51:57;7.68;;;4.63;;
22644;SDS011;11489;50.834;6.752;2023-05-07T14:54:33;6.85;;;4.05;;
22644;SDS011;11489;50.834;6.752;2023-05-07T14:57:01;5.78;;;2.97;;
22644;SDS011;11489;50.834;6.752;2023-05-07T14:59:29;4.93;;;2.45;;
22644;SDS011;11489;50.834;6.752;2023-05-07T15:01:55;4.15;;;2.38;;